Prescott Valley, AZ

7:43 AM MST on September 03, 2015 (GMT -0700)
Prescott Valley | | Change Station
CLOSE
Current Station
Personal Weather Station
Location: Prescott Valley, AZ
Elevation: 5020 ft
Nearby Weather Stations

Elev 5020 ft 34.61 °N, 112.32 °W | Updated 3 minutes ago

Clear
Clear
72.8 °F
Feels Like 75 °F
N
3.1
Wind Variable Wind from South
Gusts 5.8 mph

Today
High -- | Low -- °F
--% Chance of Precip.
Yesterday
High -- | Low -- °F
Precip. -- in
6:03 AM 6:53 PM
Waning Gibbous, 69% visible
Pressure 29.91 in
Visibility 10.0 miles
Clouds Few 10000 ft
Heat Index 75 °F
Dew Point 32 °F
Humidity 22%
Rainfall 0.00 in
Snow Depth Not available.
UV 0.0 out of 12
Pollen 5.60 out of 12
Air Quality Not available.
Flu Activity Not available.
METAR KPRC 031353Z 20006KT 10SM FEW100 16/06 A3012 RMK AO2 SLP126 T01610061
Pressure 29.91 in
Visibility 10.0 miles
Clouds Few 10000 ft
Heat Index 75 °F
Dew Point 32 °F
Humidity 22%
Rainfall 0.00 in
Snow Depth Not available.
UV 0.0 out of 12
Pollen 5.60 out of 12
Air Quality Not available.
Flu Activity Not available.
METAR KPRC 031353Z 20006KT 10SM FEW100 16/06 A3012 RMK AO2 SLP126 T01610061

10-Day Weather Forecast

×

Almanac

Astronomy

Sep. 03, 2015 Rise Set
Actual Time
Civil Twilight
Nautical Twilight
Astronomical Twilight
Moon
Length of Visible Light
Length of Day
Tomorrow will be .
, % of the Moon is Illuminated

Today's Extremes

State Highs State Lows

Community

WunderPhotos

Upload Photos

1,851,960 photos uploaded!

WunderBlogs® & News

Nearby

Air Quality

  Air Quality AQ Index Pollutant
Not available.

Snow Depth

Station Depth Elevation

Earthquake Activity

City Distance Mag. Time & Date
Minimum magnitude displayed is 2.5.

Coastal Water Temperatures

Place Temperature

Stations

Nearby Weather Stations

Station Location Temp. Windchill Dew Point Humidity Wind Precip. Elev Updated Type